sensor_id;sensor_type;location;lat;lon;timestamp;temperature;humidity
67641;SHT31;54434;50.096;20.082;2023-08-24T00:00:40;17.44;76.05
67641;SHT31;54434;50.096;20.082;2023-08-24T00:03:35;17.38;76.17
67641;SHT31;54434;50.096;20.082;2023-08-24T00:06:11;17.34;76.25
67641;SHT31;54434;50.096;20.082;2023-08-24T00:08:48;17.32;76.30
67641;SHT31;54434;50.096;20.082;2023-08-24T00:11:25;17.27;76.46
67641;SHT31;54434;50.096;20.082;2023-08-24T00:14:02;17.22;76.97
67641;SHT31;54434;50.096;20.082;2023-08-24T00:16:38;17.16;77.19
67641;SHT31;54434;50.096;20.082;2023-08-24T00:19:15;17.12;77.32
67641;SHT31;54434;50.096;20.082;2023-08-24T00:21:52;17.07;77.57
67641;SHT31;54434;50.096;20.082;2023-08-24T00:24:28;17.01;77.83
67641;SHT31;54434;50.096;20.082;2023-08-24T00:27:05;16.98;77.92
67641;SHT31;54434;50.096;20.082;2023-08-24T00:29:41;16.93;78.11
67641;SHT31;54434;50.096;20.082;2023-08-24T00:32:18;16.90;78.14
67641;SHT31;54434;50.096;20.082;2023-08-24T00:34:55;16.89;78.10
67641;SHT31;54434;50.096;20.082;2023-08-24T00:37:32;16.87;78.19
67641;SHT31;54434;50.096;20.082;2023-08-24T00:40:09;16.84;78.36
67641;SHT31;54434;50.096;20.082;2023-08-24T00:42:46;16.82;78.17
67641;SHT31;54434;50.096;20.082;2023-08-24T00:45:22;16.80;78.02
67641;SHT31;54434;50.096;20.082;2023-08-24T00:47:59;16.78;78.10
67641;SHT31;54434;50.096;20.082;2023-08-24T00:50:38;16.75;78.09
67641;SHT31;54434;50.096;20.082;2023-08-24T00:53:14;16.74;78.17
67641;SHT31;54434;50.096;20.082;2023-08-24T00:55:52;16.71;77.98
67641;SHT31;54434;50.096;20.082;2023-08-24T00:58:30;16.68;77.98
67641;SHT31;54434;50.096;20.082;2023-08-24T01:01:07;16.66;78.11
67641;SHT31;54434;50.096;20.082;2023-08-24T01:03:45;16.62;78.12
67641;SHT31;54434;50.096;20.082;2023-08-24T01:06:22;16.58;78.09
67641;SHT31;54434;50.096;20.082;2023-08-24T01:08:58;16.56;78.06
67641;SHT31;54434;50.096;20.082;2023-08-24T01:11:42;16.54;78.24
67641;SHT31;54434;50.096;20.082;2023-08-24T01:14:39;16.51;78.34
67641;SHT31;54434;50.096;20.082;2023-08-24T01:17:28;16.49;78.38
67641;SHT31;54434;50.096;20.082;2023-08-24T01:20:09;16.47;78.52
67641;SHT31;54434;50.096;20.082;2023-08-24T01:22:53;16.44;78.61
67641;SHT31;54434;50.096;20.082;2023-08-24T01:25:40;16.41;78.53
67641;SHT31;54434;50.096;20.082;2023-08-24T01:28:24;16.40;78.67
67641;SHT31;54434;50.096;20.082;2023-08-24T01:31:04;16.37;78.79
67641;SHT31;54434;50.096;20.082;2023-08-24T01:33:42;16.36;78.80
67641;SHT31;54434;50.096;20.082;2023-08-24T01:36:19;16.34;78.81
67641;SHT31;54434;50.096;20.082;2023-08-24T01:39:02;16.33;78.88
67641;SHT31;54434;50.096;20.082;2023-08-24T01:41:49;16.32;79.00
67641;SHT31;54434;50.096;20.082;2023-08-24T01:44:34;16.30;79.00
67641;SHT31;54434;50.096;20.082;2023-08-24T01:47:16;16.30;79.05
67641;SHT31;54434;50.096;20.082;2023-08-24T01:49:54;16.28;79.08
67641;SHT31;54434;50.096;20.082;2023-08-24T01:52:32;16.28;78.99
67641;SHT31;54434;50.096;20.082;2023-08-24T01:55:10;16.27;78.99
67641;SHT31;54434;50.096;20.082;2023-08-24T01:57:50;16.24;79.09
67641;SHT31;54434;50.096;20.082;2023-08-24T02:00:28;16.22;79.30
67641;SHT31;54434;50.096;20.082;2023-08-24T02:03:06;16.19;79.31
67641;SHT31;54434;50.096;20.082;2023-08-24T02:05:42;16.17;79.43
67641;SHT31;54434;50.096;20.082;2023-08-24T02:08:19;16.14;79.59
67641;SHT31;54434;50.096;20.082;2023-08-24T02:10:55;16.11;79.64
67641;SHT31;54434;50.096;20.082;2023-08-24T02:13:32;16.08;79.72
67641;SHT31;54434;50.096;20.082;2023-08-24T02:16:09;16.06;79.69
67641;SHT31;54434;50.096;20.082;2023-08-24T02:18:46;16.03;79.58
67641;SHT31;54434;50.096;20.082;2023-08-24T02:21:22;16.02;79.57
67641;SHT31;54434;50.096;20.082;2023-08-24T02:23:59;15.99;79.59
67641;SHT31;54434;50.096;20.082;2023-08-24T02:26:36;15.96;79.60
67641;SHT31;54434;50.096;20.082;2023-08-24T02:29:13;15.93;79.61
67641;SHT31;54434;50.096;20.082;2023-08-24T02:31:52;15.90;79.63
67641;SHT31;54434;50.096;20.082;2023-08-24T02:34:28;15.88;79.60
67641;SHT31;54434;50.096;20.082;2023-08-24T02:37:05;15.85;79.54
67641;SHT31;54434;50.096;20.082;2023-08-24T02:39:42;15.83;79.60
67641;SHT31;54434;50.096;20.082;2023-08-24T02:42:18;15.80;79.55
67641;SHT31;54434;50.096;20.082;2023-08-24T02:44:58;15.76;79.50
67641;SHT31;54434;50.096;20.082;2023-08-24T02:47:36;15.73;79.44
67641;SHT31;54434;50.096;20.082;2023-08-24T02:50:12;15.70;79.45
67641;SHT31;54434;50.096;20.082;2023-08-24T02:52:49;15.67;79.49
67641;SHT31;54434;50.096;20.082;2023-08-24T02:55:25;15.64;79.40
67641;SHT31;54434;50.096;20.082;2023-08-24T02:58:04;15.62;79.33
67641;SHT31;54434;50.096;20.082;2023-08-24T03:00:41;15.58;79.28
67641;SHT31;54434;50.096;20.082;2023-08-24T03:03:18;15.55;79.24
67641;SHT31;54434;50.096;20.082;2023-08-24T03:05:57;15.53;79.34
67641;SHT31;54434;50.096;20.082;2023-08-24T03:08:35;15.50;79.41
67641;SHT31;54434;50.096;20.082;2023-08-24T03:11:12;15.47;79.49
67641;SHT31;54434;50.096;20.082;2023-08-24T03:13:48;15.43;79.55
67641;SHT31;54434;50.096;20.082;2023-08-24T03:16:26;15.39;79.61
67641;SHT31;54434;50.096;20.082;2023-08-24T03:19:02;15.36;79.57
67641;SHT31;54434;50.096;20.082;2023-08-24T03:21:39;15.32;79.58
67641;SHT31;54434;50.096;20.082;2023-08-24T03:24:15;15.29;79.82
67641;SHT31;54434;50.096;20.082;2023-08-24T03:26:52;15.25;79.94
67641;SHT31;54434;50.096;20.082;2023-08-24T03:29:29;15.22;80.07
67641;SHT31;54434;50.096;20.082;2023-08-24T03:32:06;15.19;80.10
67641;SHT31;54434;50.096;20.082;2023-08-24T03:34:43;15.17;80.19
67641;SHT31;54434;50.096;20.082;2023-08-24T03:37:20;15.13;80.30
67641;SHT31;54434;50.096;20.082;2023-08-24T03:39:58;15.11;80.33
67641;SHT31;54434;50.096;20.082;2023-08-24T03:42:36;15.09;80.43
67641;SHT31;54434;50.096;20.082;2023-08-24T03:45:12;15.08;80.61
67641;SHT31;54434;50.096;20.082;2023-08-24T03:47:49;15.06;80.72
67641;SHT31;54434;50.096;20.082;2023-08-24T03:50:26;15.03;80.78
67641;SHT31;54434;50.096;20.082;2023-08-24T03:53:03;15.02;80.86
67641;SHT31;54434;50.096;20.082;2023-08-24T03:55:40;15.02;80.97
67641;SHT31;54434;50.096;20.082;2023-08-24T03:58:21;15.02;80.96
67641;SHT31;54434;50.096;20.082;2023-08-24T04:00:57;15.02;81.04
67641;SHT31;54434;50.096;20.082;2023-08-24T04:03:34;15.03;81.12
67641;SHT31;54434;50.096;20.082;2023-08-24T04:06:11;15.04;81.21
67641;SHT31;54434;50.096;20.082;2023-08-24T04:08:50;15.05;81.20
67641;SHT31;54434;50.096;20.082;2023-08-24T04:11:27;15.06;81.25
67641;SHT31;54434;50.096;20.082;2023-08-24T04:14:04;15.09;81.32
67641;SHT31;54434;50.096;20.082;2023-08-24T04:16:40;15.12;81.24
67641;SHT31;54434;50.096;20.082;2023-08-24T04:19:16;15.18;81.12
67641;SHT31;54434;50.096;20.082;2023-08-24T04:21:53;15.22;80.93
67641;SHT31;54434;50.096;20.082;2023-08-24T04:24:29;15.31;80.77
67641;SHT31;54434;50.096;20.082;2023-08-24T04:27:06;15.40;80.61
67641;SHT31;54434;50.096;20.082;2023-08-24T04:29:43;15.48;80.54
67641;SHT31;54434;50.096;20.082;2023-08-24T04:32:19;15.55;80.29
67641;SHT31;54434;50.096;20.082;2023-08-24T04:34:56;15.63;80.01
67641;SHT31;54434;50.096;20.082;2023-08-24T04:37:33;15.78;79.75
67641;SHT31;54434;50.096;20.082;2023-08-24T04:40:11;16.05;79.42
67641;SHT31;54434;50.096;20.082;2023-08-24T04:42:47;16.39;78.83
67641;SHT31;54434;50.096;20.082;2023-08-24T04:45:24;16.78;78.31
67641;SHT31;54434;50.096;20.082;2023-08-24T04:48:00;17.21;77.24
67641;SHT31;54434;50.096;20.082;2023-08-24T04:50:38;17.61;75.92
67641;SHT31;54434;50.096;20.082;2023-08-24T04:53:19;18.07;75.29
67641;SHT31;54434;50.096;20.082;2023-08-24T04:55:56;18.60;74.03
67641;SHT31;54434;50.096;20.082;2023-08-24T04:58:34;19.13;72.68
67641;SHT31;54434;50.096;20.082;2023-08-24T05:01:10;19.56;71.15
67641;SHT31;54434;50.096;20.082;2023-08-24T05:03:47;19.93;69.78
67641;SHT31;54434;50.096;20.082;2023-08-24T05:06:24;20.36;69.08
67641;SHT31;54434;50.096;20.082;2023-08-24T05:09:00;20.83;68.09
67641;SHT31;54434;50.096;20.082;2023-08-24T05:11:37;21.41;67.49
67641;SHT31;54434;50.096;20.082;2023-08-24T05:14:14;21.98;66.29
67641;SHT31;54434;50.096;20.082;2023-08-24T05:16:50;22.49;64.93
67641;SHT31;54434;50.096;20.082;2023-08-24T05:19:26;23.03;63.52
67641;SHT31;54434;50.096;20.082;2023-08-24T05:22:03;23.51;62.74
67641;SHT31;54434;50.096;20.082;2023-08-24T05:24:40;23.94;61.43
67641;SHT31;54434;50.096;20.082;2023-08-24T05:27:16;24.45;59.87
67641;SHT31;54434;50.096;20.082;2023-08-24T05:29:52;24.94;58.40
67641;SHT31;54434;50.096;20.082;2023-08-24T05:32:30;25.30;57.52
67641;SHT31;54434;50.096;20.082;2023-08-24T05:35:10;25.62;56.71
67641;SHT31;54434;50.096;20.082;2023-08-24T05:37:47;25.99;55.90
67641;SHT31;54434;50.096;20.082;2023-08-24T05:40:25;26.29;55.11
67641;SHT31;54434;50.096;20.082;2023-08-24T05:43:01;26.75;54.69
67641;SHT31;54434;50.096;20.082;2023-08-24T05:45:39;27.17;53.35
67641;SHT31;54434;50.096;20.082;2023-08-24T05:48:16;27.28;52.14
67641;SHT31;54434;50.096;20.082;2023-08-24T05:50:53;27.50;51.68
67641;SHT31;54434;50.096;20.082;2023-08-24T05:53:29;27.87;50.55
67641;SHT31;54434;50.096;20.082;2023-08-24T05:56:06;28.08;49.82
67641;SHT31;54434;50.096;20.082;2023-08-24T05:58:42;28.39;49.10
67641;SHT31;54434;50.096;20.082;2023-08-24T06:01:18;28.58;48.22
67641;SHT31;54434;50.096;20.082;2023-08-24T06:03:55;28.60;48.23
67641;SHT31;54434;50.096;20.082;2023-08-24T06:06:31;28.75;48.42
67641;SHT31;54434;50.096;20.082;2023-08-24T06:09:07;29.17;47.81
67641;SHT31;54434;50.096;20.082;2023-08-24T06:11:43;29.48;47.01
67641;SHT31;54434;50.096;20.082;2023-08-24T06:14:20;29.75;46.83
67641;SHT31;54434;50.096;20.082;2023-08-24T06:17:05;30.02;46.57
67641;SHT31;54434;50.096;20.082;2023-08-24T06:19:42;30.29;45.99
67641;SHT31;54434;50.096;20.082;2023-08-24T06:22:18;30.53;45.32
67641;SHT31;54434;50.096;20.082;2023-08-24T06:24:55;30.64;44.59
67641;SHT31;54434;50.096;20.082;2023-08-24T06:27:33;30.73;44.33
67641;SHT31;54434;50.096;20.082;2023-08-24T06:30:11;30.86;43.55
67641;SHT31;54434;50.096;20.082;2023-08-24T06:32:47;30.89;43.67
67641;SHT31;54434;50.096;20.082;2023-08-24T06:35:24;30.86;43.55
67641;SHT31;54434;50.096;20.082;2023-08-24T06:38:00;31.09;42.93
67641;SHT31;54434;50.096;20.082;2023-08-24T06:40:38;31.20;42.45
67641;SHT31;54434;50.096;20.082;2023-08-24T06:43:15;31.40;42.59
67641;SHT31;54434;50.096;20.082;2023-08-24T06:45:51;31.53;41.90
67641;SHT31;54434;50.096;20.082;2023-08-24T06:48:28;31.58;41.94
67641;SHT31;54434;50.096;20.082;2023-08-24T06:51:04;31.67;41.42
67641;SHT31;54434;50.096;20.082;2023-08-24T06:53:41;31.76;41.56
67641;SHT31;54434;50.096;20.082;2023-08-24T06:56:18;31.76;42.18
67641;SHT31;54434;50.096;20.082;2023-08-24T06:58:55;31.98;41.65
67641;SHT31;54434;50.096;20.082;2023-08-24T07:01:31;32.15;41.10
67641;SHT31;54434;50.096;20.082;2023-08-24T07:04:08;32.05;40.87
67641;SHT31;54434;50.096;20.082;2023-08-24T07:06:45;32.13;41.19
67641;SHT31;54434;50.096;20.082;2023-08-24T07:09:23;32.19;41.34
67641;SHT31;54434;50.096;20.082;2023-08-24T07:12:00;32.22;41.34
67641;SHT31;54434;50.096;20.082;2023-08-24T07:14:38;32.21;41.07
67641;SHT31;54434;50.096;20.082;2023-08-24T07:17:16;32.20;41.27
67641;SHT31;54434;50.096;20.082;2023-08-24T07:19:53;32.45;41.04
67641;SHT31;54434;50.096;20.082;2023-08-24T07:22:29;32.62;40.45
67641;SHT31;54434;50.096;20.082;2023-08-24T07:25:08;32.73;40.56
67641;SHT31;54434;50.096;20.082;2023-08-24T07:27:46;32.91;39.68
67641;SHT31;54434;50.096;20.082;2023-08-24T07:30:24;32.93;39.62
67641;SHT31;54434;50.096;20.082;2023-08-24T07:33:05;32.97;39.36
67641;SHT31;54434;50.096;20.082;2023-08-24T07:35:42;32.97;39.42
67641;SHT31;54434;50.096;20.082;2023-08-24T07:38:19;32.98;38.58
67641;SHT31;54434;50.096;20.082;2023-08-24T07:40:56;32.93;39.11
67641;SHT31;54434;50.096;20.082;2023-08-24T07:43:33;33.20;38.81
67641;SHT31;54434;50.096;20.082;2023-08-24T07:46:10;33.19;38.45
67641;SHT31;54434;50.096;20.082;2023-08-24T07:48:47;33.06;38.51
67641;SHT31;54434;50.096;20.082;2023-08-24T07:51:23;33.03;38.97
67641;SHT31;54434;50.096;20.082;2023-08-24T07:54:00;33.15;39.25
67641;SHT31;54434;50.096;20.082;2023-08-24T07:56:38;33.23;39.11
67641;SHT31;54434;50.096;20.082;2023-08-24T07:59:15;33.11;38.97
67641;SHT31;54434;50.096;20.082;2023-08-24T08:01:51;33.03;39.53
67641;SHT31;54434;50.096;20.082;2023-08-24T08:04:28;33.02;39.49
67641;SHT31;54434;50.096;20.082;2023-08-24T08:07:04;33.15;39.12
67641;SHT31;54434;50.096;20.082;2023-08-24T08:09:42;33.09;39.61
67641;SHT31;54434;50.096;20.082;2023-08-24T08:12:18;33.01;39.39
67641;SHT31;54434;50.096;20.082;2023-08-24T08:14:55;32.97;39.44
67641;SHT31;54434;50.096;20.082;2023-08-24T08:17:32;32.95;39.07
67641;SHT31;54434;50.096;20.082;2023-08-24T08:20:09;32.88;39.04
67641;SHT31;54434;50.096;20.082;2023-08-24T08:22:48;32.97;39.97
67641;SHT31;54434;50.096;20.082;2023-08-24T08:25:25;32.99;39.82
67641;SHT31;54434;50.096;20.082;2023-08-24T08:28:06;32.95;40.25
67641;SHT31;54434;50.096;20.082;2023-08-24T08:30:42;33.04;40.71
67641;SHT31;54434;50.096;20.082;2023-08-24T08:33:21;33.10;40.69
67641;SHT31;54434;50.096;20.082;2023-08-24T08:35:57;33.06;40.40
67641;SHT31;54434;50.096;20.082;2023-08-24T08:38:35;32.94;40.33
67641;SHT31;54434;50.096;20.082;2023-08-24T08:41:11;32.92;40.71
67641;SHT31;54434;50.096;20.082;2023-08-24T08:43:53;32.86;40.48
67641;SHT31;54434;50.096;20.082;2023-08-24T08:46:30;32.67;40.53
67641;SHT31;54434;50.096;20.082;2023-08-24T08:49:08;32.62;41.27
67641;SHT31;54434;50.096;20.082;2023-08-24T08:51:49;32.61;41.71
67641;SHT31;54434;50.096;20.082;2023-08-24T08:54:26;32.50;40.77
67641;SHT31;54434;50.096;20.082;2023-08-24T08:57:02;32.24;41.36
67641;SHT31;54434;50.096;20.082;2023-08-24T08:59:40;32.17;41.16
67641;SHT31;54434;50.096;20.082;2023-08-24T09:02:18;32.15;41.53
67641;SHT31;54434;50.096;20.082;2023-08-24T09:05:06;31.99;41.15
67641;SHT31;54434;50.096;20.082;2023-08-24T09:07:43;31.60;41.70
67641;SHT31;54434;50.096;20.082;2023-08-24T09:10:22;31.39;42.33
67641;SHT31;54434;50.096;20.082;2023-08-24T09:12:59;31.27;42.52
67641;SHT31;54434;50.096;20.082;2023-08-24T09:15:37;31.24;43.04
67641;SHT31;54434;50.096;20.082;2023-08-24T09:18:13;31.24;42.98
67641;SHT31;54434;50.096;20.082;2023-08-24T09:20:50;31.19;42.79
67641;SHT31;54434;50.096;20.082;2023-08-24T09:23:27;31.14;42.06
67641;SHT31;54434;50.096;20.082;2023-08-24T09:26:04;30.90;41.90
67641;SHT31;54434;50.096;20.082;2023-08-24T09:28:43;30.75;42.23
67641;SHT31;54434;50.096;20.082;2023-08-24T09:31:19;30.46;42.57
67641;SHT31;54434;50.096;20.082;2023-08-24T09:34:10;30.30;43.63
67641;SHT31;54434;50.096;20.082;2023-08-24T09:36:47;30.27;43.43
67641;SHT31;54434;50.096;20.082;2023-08-24T09:39:27;30.16;42.64
67641;SHT31;54434;50.096;20.082;2023-08-24T09:42:08;29.97;43.28
67641;SHT31;54434;50.096;20.082;2023-08-24T09:44:46;29.84;42.96
67641;SHT31;54434;50.096;20.082;2023-08-24T09:47:23;29.75;42.45
67641;SHT31;54434;50.096;20.082;2023-08-24T09:50:01;29.69;41.80
67641;SHT31;54434;50.096;20.082;2023-08-24T09:52:40;29.57;41.59
67641;SHT31;54434;50.096;20.082;2023-08-24T09:55:21;29.60;40.06
67641;SHT31;54434;50.096;20.082;2023-08-24T09:57:57;29.35;38.70
67641;SHT31;54434;50.096;20.082;2023-08-24T10:00:36;28.96;39.06
67641;SHT31;54434;50.096;20.082;2023-08-24T10:03:16;28.60;38.39
67641;SHT31;54434;50.096;20.082;2023-08-24T10:05:58;28.38;39.21
67641;SHT31;54434;50.096;20.082;2023-08-24T10:08:43;28.18;40.30
67641;SHT31;54434;50.096;20.082;2023-08-24T10:11:28;28.04;42.38
67641;SHT31;54434;50.096;20.082;2023-08-24T10:14:15;27.94;42.39
67641;SHT31;54434;50.096;20.082;2023-08-24T10:17:00;27.88;43.60
67641;SHT31;54434;50.096;20.082;2023-08-24T10:19:37;27.80;44.34
67641;SHT31;54434;50.096;20.082;2023-08-24T10:22:15;27.70;44.90
67641;SHT31;54434;50.096;20.082;2023-08-24T10:24:52;27.53;45.05
67641;SHT31;54434;50.096;20.082;2023-08-24T10:27:31;27.47;45.98
67641;SHT31;54434;50.096;20.082;2023-08-24T10:30:11;27.60;46.38
67641;SHT31;54434;50.096;20.082;2023-08-24T10:32:48;27.70;45.38
67641;SHT31;54434;50.096;20.082;2023-08-24T10:35:27;27.82;45.06
67641;SHT31;54434;50.096;20.082;2023-08-24T10:38:05;27.97;45.85
67641;SHT31;54434;50.096;20.082;2023-08-24T10:40:42;28.19;46.97
67641;SHT31;54434;50.096;20.082;2023-08-24T10:43:20;28.43;44.71
67641;SHT31;54434;50.096;20.082;2023-08-24T10:45:58;28.47;43.30
67641;SHT31;54434;50.096;20.082;2023-08-24T10:48:58;28.50;44.75
67641;SHT31;54434;50.096;20.082;2023-08-24T10:51:45;28.63;45.05
67641;SHT31;54434;50.096;20.082;2023-08-24T10:54:29;28.76;44.57
67641;SHT31;54434;50.096;20.082;2023-08-24T10:57:21;28.90;43.81
67641;SHT31;54434;50.096;20.082;2023-08-24T11:00:04;28.99;43.02
67641;SHT31;54434;50.096;20.082;2023-08-24T11:02:45;29.11;42.30
67641;SHT31;54434;50.096;20.082;2023-08-24T11:05:27;29.16;42.64
67641;SHT31;54434;50.096;20.082;2023-08-24T11:08:05;29.22;42.03
67641;SHT31;54434;50.096;20.082;2023-08-24T11:10:47;29.31;42.77
67641;SHT31;54434;50.096;20.082;2023-08-24T11:13:26;29.44;42.80
67641;SHT31;54434;50.096;20.082;2023-08-24T11:16:03;29.49;41.17
67641;SHT31;54434;50.096;20.082;2023-08-24T11:19:00;29.54;41.97
67641;SHT31;54434;50.096;20.082;2023-08-24T11:21:39;29.64;42.37
67641;SHT31;54434;50.096;20.082;2023-08-24T11:24:18;29.78;42.41
67641;SHT31;54434;50.096;20.082;2023-08-24T11:26:59;29.82;42.81
67641;SHT31;54434;50.096;20.082;2023-08-24T11:29:42;30.00;42.28
67641;SHT31;54434;50.096;20.082;2023-08-24T11:32:19;30.14;41.13
67641;SHT31;54434;50.096;20.082;2023-08-24T11:34:56;30.25;41.59
67641;SHT31;54434;50.096;20.082;2023-08-24T11:37:32;30.39;42.00
67641;SHT31;54434;50.096;20.082;2023-08-24T11:40:17;30.51;40.86
67641;SHT31;54434;50.096;20.082;2023-08-24T11:42:58;30.48;39.71
67641;SHT31;54434;50.096;20.082;2023-08-24T11:45:42;30.45;40.30
67641;SHT31;54434;50.096;20.082;2023-08-24T11:48:19;30.40;39.98
67641;SHT31;54434;50.096;20.082;2023-08-24T11:51:01;30.39;41.14
67641;SHT31;54434;50.096;20.082;2023-08-24T11:53:41;30.40;41.42
67641;SHT31;54434;50.096;20.082;2023-08-24T11:56:18;30.32;41.45
67641;SHT31;54434;50.096;20.082;2023-08-24T11:58:55;30.20;41.39
67641;SHT31;54434;50.096;20.082;2023-08-24T12:01:32;30.06;41.48
67641;SHT31;54434;50.096;20.082;2023-08-24T12:04:10;29.97;42.06
67641;SHT31;54434;50.096;20.082;2023-08-24T12:06:47;30.02;41.27
67641;SHT31;54434;50.096;20.082;2023-08-24T12:09:23;30.06;41.13
67641;SHT31;54434;50.096;20.082;2023-08-24T12:12:05;30.06;40.46
67641;SHT31;54434;50.096;20.082;2023-08-24T12:14:47;30.07;40.25
67641;SHT31;54434;50.096;20.082;2023-08-24T12:17:24;29.93;39.42
67641;SHT31;54434;50.096;20.082;2023-08-24T12:20:01;29.73;40.40
67641;SHT31;54434;50.096;20.082;2023-08-24T12:22:44;29.59;40.83
67641;SHT31;54434;50.096;20.082;2023-08-24T12:25:24;29.49;40.85
67641;SHT31;54434;50.096;20.082;2023-08-24T12:28:13;29.44;41.21
67641;SHT31;54434;50.096;20.082;2023-08-24T12:30:51;29.33;40.70
67641;SHT31;54434;50.096;20.082;2023-08-24T12:33:31;29.25;40.32
67641;SHT31;54434;50.096;20.082;2023-08-24T12:36:07;29.21;40.20
67641;SHT31;54434;50.096;20.082;2023-08-24T12:38:44;29.15;40.03
67641;SHT31;54434;50.096;20.082;2023-08-24T12:41:20;29.13;40.87
67641;SHT31;54434;50.096;20.082;2023-08-24T12:43:57;29.12;41.43
67641;SHT31;54434;50.096;20.082;2023-08-24T12:46:37;29.00;42.23
67641;SHT31;54434;50.096;20.082;2023-08-24T12:49:20;28.86;42.36
67641;SHT31;54434;50.096;20.082;2023-08-24T12:51:58;28.69;42.00
67641;SHT31;54434;50.096;20.082;2023-08-24T12:54:35;28.55;42.40
67641;SHT31;54434;50.096;20.082;2023-08-24T12:57:11;28.51;42.90
67641;SHT31;54434;50.096;20.082;2023-08-24T12:59:47;28.52;42.40
67641;SHT31;54434;50.096;20.082;2023-08-24T13:02:26;28.51;42.06
67641;SHT31;54434;50.096;20.082;2023-08-24T13:05:10;28.53;41.87
67641;SHT31;54434;50.096;20.082;2023-08-24T13:07:46;28.56;41.49
67641;SHT31;54434;50.096;20.082;2023-08-24T13:10:24;28.58;41.73
67641;SHT31;54434;50.096;20.082;2023-08-24T13:13:01;28.55;41.30
67641;SHT31;54434;50.096;20.082;2023-08-24T13:15:38;28.57;40.83
67641;SHT31;54434;50.096;20.082;2023-08-24T13:18:14;28.56;40.08
67641;SHT31;54434;50.096;20.082;2023-08-24T13:20:51;28.54;40.69
67641;SHT31;54434;50.096;20.082;2023-08-24T13:23:28;28.54;40.74
67641;SHT31;54434;50.096;20.082;2023-08-24T13:26:05;28.55;41.41
67641;SHT31;54434;50.096;20.082;2023-08-24T13:28:52;28.69;41.66
67641;SHT31;54434;50.096;20.082;2023-08-24T13:31:29;28.74;40.78
67641;SHT31;54434;50.096;20.082;2023-08-24T13:34:07;28.80;40.60
67641;SHT31;54434;50.096;20.082;2023-08-24T13:36:43;28.88;40.67
67641;SHT31;54434;50.096;20.082;2023-08-24T13:39:20;28.89;41.02
67641;SHT31;54434;50.096;20.082;2023-08-24T13:42:01;28.95;40.37
67641;SHT31;54434;50.096;20.082;2023-08-24T13:44:37;28.93;39.58
67641;SHT31;54434;50.096;20.082;2023-08-24T13:47:15;28.94;39.70
67641;SHT31;54434;50.096;20.082;2023-08-24T13:49:53;29.05;39.70
67641;SHT31;54434;50.096;20.082;2023-08-24T13:52:29;29.13;39.68
67641;SHT31;54434;50.096;20.082;2023-08-24T13:55:10;29.14;38.98
67641;SHT31;54434;50.096;20.082;2023-08-24T13:57:49;29.09;38.07
67641;SHT31;54434;50.096;20.082;2023-08-24T14:00:26;29.07;37.61
67641;SHT31;54434;50.096;20.082;2023-08-24T14:03:03;29.11;38.26
67641;SHT31;54434;50.096;20.082;2023-08-24T14:05:41;29.10;39.17
67641;SHT31;54434;50.096;20.082;2023-08-24T14:08:19;29.00;38.44
67641;SHT31;54434;50.096;20.082;2023-08-24T14:10:55;28.91;39.17
67641;SHT31;54434;50.096;20.082;2023-08-24T14:13:31;28.89;39.82
67641;SHT31;54434;50.096;20.082;2023-08-24T14:16:08;28.84;40.00
67641;SHT31;54434;50.096;20.082;2023-08-24T14:18:44;28.80;39.95
67641;SHT31;54434;50.096;20.082;2023-08-24T14:21:21;28.77;39.26
67641;SHT31;54434;50.096;20.082;2023-08-24T14:24:15;28.78;40.05
67641;SHT31;54434;50.096;20.082;2023-08-24T14:26:54;28.77;38.81
67641;SHT31;54434;50.096;20.082;2023-08-24T14:29:30;28.72;39.61
67641;SHT31;54434;50.096;20.082;2023-08-24T14:32:07;28.67;41.38
67641;SHT31;54434;50.096;20.082;2023-08-24T14:34:43;28.61;39.70
67641;SHT31;54434;50.096;20.082;2023-08-24T14:37:21;28.52;39.71
67641;SHT31;54434;50.096;20.082;2023-08-24T14:39:57;28.45;40.17
67641;SHT31;54434;50.096;20.082;2023-08-24T14:42:37;28.37;41.01
67641;SHT31;54434;50.096;20.082;2023-08-24T14:45:13;28.27;41.55
67641;SHT31;54434;50.096;20.082;2023-08-24T14:47:50;28.17;41.70
67641;SHT31;54434;50.096;20.082;2023-08-24T14:50:27;28.10;41.37
67641;SHT31;54434;50.096;20.082;2023-08-24T14:53:04;28.00;41.17
67641;SHT31;54434;50.096;20.082;2023-08-24T14:55:41;27.82;41.42
67641;SHT31;54434;50.096;20.082;2023-08-24T14:58:18;27.62;41.68
67641;SHT31;54434;50.096;20.082;2023-08-24T15:00:55;27.49;41.90
67641;SHT31;54434;50.096;20.082;2023-08-24T15:03:32;27.33;42.02
67641;SHT31;54434;50.096;20.082;2023-08-24T15:06:11;27.19;42.34
67641;SHT31;54434;50.096;20.082;2023-08-24T15:08:48;27.11;42.99
67641;SHT31;54434;50.096;20.082;2023-08-24T15:11:24;27.03;43.54
67641;SHT31;54434;50.096;20.082;2023-08-24T15:14:01;26.92;43.86
67641;SHT31;54434;50.096;20.082;2023-08-24T15:16:37;26.88;44.14
67641;SHT31;54434;50.096;20.082;2023-08-24T15:19:14;26.83;44.65
67641;SHT31;54434;50.096;20.082;2023-08-24T15:21:50;26.75;44.65
67641;SHT31;54434;50.096;20.082;2023-08-24T15:24:26;26.66;45.28
67641;SHT31;54434;50.096;20.082;2023-08-24T15:27:03;26.57;45.33
67641;SHT31;54434;50.096;20.082;2023-08-24T15:29:40;26.50;45.54
67641;SHT31;54434;50.096;20.082;2023-08-24T15:32:16;26.44;45.80
67641;SHT31;54434;50.096;20.082;2023-08-24T15:34:53;26.40;45.57
67641;SHT31;54434;50.096;20.082;2023-08-24T15:37:31;26.37;46.53
67641;SHT31;54434;50.096;20.082;2023-08-24T15:40:09;26.34;46.17
67641;SHT31;54434;50.096;20.082;2023-08-24T15:42:46;26.31;46.82
67641;SHT31;54434;50.096;20.082;2023-08-24T15:45:23;26.31;47.43
67641;SHT31;54434;50.096;20.082;2023-08-24T15:48:02;26.31;47.12
67641;SHT31;54434;50.096;20.082;2023-08-24T15:50:40;26.31;46.98
67641;SHT31;54434;50.096;20.082;2023-08-24T15:53:17;26.31;46.75
67641;SHT31;54434;50.096;20.082;2023-08-24T15:55:53;26.32;47.07
67641;SHT31;54434;50.096;20.082;2023-08-24T15:58:32;26.33;47.19
67641;SHT31;54434;50.096;20.082;2023-08-24T16:01:08;26.31;46.95
67641;SHT31;54434;50.096;20.082;2023-08-24T16:03:45;26.30;47.07
67641;SHT31;54434;50.096;20.082;2023-08-24T16:06:22;26.30;46.98
67641;SHT31;54434;50.096;20.082;2023-08-24T16:08:58;26.30;47.12
67641;SHT31;54434;50.096;20.082;2023-08-24T16:11:35;26.27;47.25
67641;SHT31;54434;50.096;20.082;2023-08-24T16:14:12;26.25;47.11
67641;SHT31;54434;50.096;20.082;2023-08-24T16:16:48;26.24;47.37
67641;SHT31;54434;50.096;20.082;2023-08-24T16:19:26;26.20;47.40
67641;SHT31;54434;50.096;20.082;2023-08-24T16:22:03;26.17;47.08